createdAt,value
2019-05-07T00:02:03.829Z,10.20
2019-05-07T00:04:34.459Z,10.10
2019-05-07T00:07:04.910Z,10.10
2019-05-07T00:09:35.743Z,10.00
2019-05-07T00:12:06.292Z,10.00
2019-05-07T00:14:37.479Z,9.90
2019-05-07T00:17:08.157Z,9.90
2019-05-07T00:19:38.703Z,9.80
2019-05-07T00:22:09.376Z,9.70
2019-05-07T00:24:39.875Z,9.70
2019-05-07T00:27:13.086Z,9.70
2019-05-07T00:29:43.977Z,9.50
2019-05-07T00:32:14.401Z,9.50
2019-05-07T00:34:48.999Z,9.50
2019-05-07T00:37:29.022Z,9.40
2019-05-07T00:40:22.538Z,9.20
2019-05-07T00:43:24.043Z,9.10
2019-05-07T00:46:19.682Z,9.00
2019-05-07T00:48:50.176Z,8.90
2019-05-07T00:51:33.449Z,9.00
2019-05-07T00:54:05.921Z,8.90
2019-05-07T00:56:36.520Z,8.90
2019-05-07T00:59:06.942Z,9.00
2019-05-07T01:01:37.724Z,9.00
2019-05-07T01:04:08.178Z,8.90
2019-05-07T01:06:39.134Z,8.90
2019-05-07T01:09:12.347Z,8.80
2019-05-07T01:11:43.015Z,8.70
2019-05-07T01:14:13.576Z,8.70
2019-05-07T01:16:44.006Z,8.50
2019-05-07T01:19:14.477Z,8.40
2019-05-07T01:21:45.172Z,8.50
2019-05-07T01:24:15.742Z,8.50
2019-05-07T01:26:46.361Z,8.40
2019-05-07T01:29:16.871Z,8.50
2019-05-07T01:32:03.145Z,8.50
2019-05-07T01:34:39.805Z,8.30
2019-05-07T01:37:12.270Z,8.30
2019-05-07T01:39:42.851Z,8.20
2019-05-07T01:42:13.347Z,8.10
2019-05-07T01:44:43.775Z,8.10
2019-05-07T01:47:14.296Z,8.10
2019-05-07T01:49:44.704Z,8.00
2019-05-07T01:52:15.139Z,7.90
2019-05-07T01:54:47.495Z,7.80
2019-05-07T01:57:17.879Z,7.70
2019-05-07T01:59:48.267Z,7.70
2019-05-07T02:02:24.842Z,7.60
2019-05-07T02:05:12.929Z,7.50
2019-05-07T02:07:49.276Z,7.50
2019-05-07T02:10:27.213Z,7.50
2019-05-07T02:12:58.161Z,7.40
2019-05-07T02:15:28.701Z,7.40
2019-05-07T02:17:59.133Z,7.50
2019-05-07T02:20:31.970Z,7.40
2019-05-07T02:23:02.750Z,7.30
2019-05-07T02:25:33.561Z,7.30
2019-05-07T02:28:05.333Z,7.30
2019-05-07T02:30:35.823Z,7.20
2019-05-07T02:33:07.706Z,7.10
2019-05-07T02:35:38.948Z,7.10
2019-05-07T02:38:24.751Z,7.00
2019-05-07T02:41:02.724Z,6.90
2019-05-07T02:43:33.842Z,6.90
2019-05-07T02:46:31.541Z,6.90
2019-05-07T02:49:27.061Z,6.90
2019-05-07T02:52:13.737Z,6.90
2019-05-07T02:55:04.037Z,6.90
2019-05-07T02:57:34.399Z,6.90
2019-05-07T03:00:06.161Z,6.80
2019-05-07T03:02:36.929Z,6.60
2019-05-07T03:05:07.372Z,6.60
2019-05-07T03:07:38.022Z,6.60
2019-05-07T03:10:08.910Z,6.60
2019-05-07T03:12:42.792Z,6.50
2019-05-07T03:15:13.310Z,6.60
2019-05-07T03:17:43.799Z,6.50
2019-05-07T03:20:18.141Z,6.40
2019-05-07T03:22:48.625Z,6.40
2019-05-07T03:25:23.636Z,6.30
2019-05-07T03:27:54.204Z,6.30
2019-05-07T03:30:49.743Z,6.20
2019-05-07T03:33:30.030Z,6.20
2019-05-07T03:36:06.235Z,6.20
2019-05-07T03:38:33.473Z,6.20
2019-05-07T03:41:04.493Z,6.10
2019-05-07T03:43:34.936Z,6.10
2019-05-07T03:46:14.447Z,6.10
2019-05-07T03:48:46.665Z,6.10
2019-05-07T03:51:17.098Z,6.00
2019-05-07T03:53:47.837Z,6.00
2019-05-07T03:56:18.295Z,6.00
2019-05-07T03:58:48.864Z,6.00
2019-05-07T04:01:19.737Z,6.10
2019-05-07T04:03:53.112Z,6.10
2019-05-07T04:06:23.397Z,6.20
2019-05-07T04:08:54.341Z,6.20
2019-05-07T04:11:24.814Z,6.30
2019-05-07T04:13:55.471Z,6.30
2019-05-07T04:16:26.083Z,6.40
2019-05-07T04:18:56.914Z,6.40
2019-05-07T04:21:27.683Z,6.50
2019-05-07T04:24:14.512Z,6.50
2019-05-07T04:26:48.809Z,6.50
2019-05-07T04:29:19.374Z,6.60
2019-05-07T04:31:49.838Z,6.70
2019-05-07T04:34:44.432Z,6.70
2019-05-07T04:37:15.008Z,6.80
2019-05-07T04:39:53.693Z,6.90
2019-05-07T04:42:24.959Z,7.00
2019-05-07T04:44:55.752Z,7.10
2019-05-07T04:47:38.464Z,7.20
2019-05-07T04:49:58.812Z,7.30
2019-05-07T04:52:36.024Z,7.30
2019-05-07T04:55:07.247Z,7.30
2019-05-07T04:57:38.274Z,7.30
2019-05-07T05:00:13.167Z,7.50
2019-05-07T05:03:03.334Z,7.50
2019-05-07T05:05:34.009Z,7.60
2019-05-07T05:08:04.522Z,7.80
2019-05-07T05:10:35.087Z,7.90
2019-05-07T05:13:05.578Z,8.00
2019-05-07T05:15:36.272Z,8.00
2019-05-07T05:18:06.878Z,8.10
2019-05-07T05:20:59.286Z,8.20
2019-05-07T05:23:44.993Z,8.20
2019-05-07T05:26:15.546Z,8.20
2019-05-07T05:28:46.025Z,8.20
2019-05-07T05:31:16.794Z,8.20
2019-05-07T05:33:47.234Z,8.20
2019-05-07T05:36:17.656Z,8.20
2019-05-07T05:38:48.206Z,8.20
2019-05-07T05:41:18.675Z,8.10
2019-05-07T05:44:14.473Z,8.10
2019-05-07T05:46:46.351Z,8.20
2019-05-07T05:49:16.795Z,8.20
2019-05-07T05:52:04.738Z,8.30
2019-05-07T05:55:03.546Z,8.40
2019-05-07T05:58:12.227Z,8.50
2019-05-07T06:01:03.128Z,8.60
2019-05-07T06:03:51.978Z,8.70
2019-05-07T06:06:32.707Z,8.70
2019-05-07T06:09:12.388Z,8.80
2019-05-07T06:11:52.007Z,8.90
2019-05-07T06:14:33.054Z,9.10
2019-05-07T06:17:15.652Z,9.20
2019-05-07T06:19:59.903Z,9.30
2019-05-07T06:22:52.876Z,9.40
2019-05-07T06:25:25.138Z,9.40
2019-05-07T06:27:55.949Z,9.40
2019-05-07T06:30:26.292Z,9.50
2019-05-07T06:32:56.703Z,9.60
2019-05-07T06:35:27.259Z,9.70
2019-05-07T06:37:57.653Z,9.80
2019-05-07T06:40:42.326Z,9.90
2019-05-07T06:43:26.331Z,9.90
2019-05-07T06:45:58.165Z,9.90
2019-05-07T06:48:40.822Z,9.90
2019-05-07T06:51:02.910Z,10.00
2019-05-07T06:53:33.864Z,10.10
2019-05-07T06:56:13.881Z,10.10
2019-05-07T06:58:59.303Z,10.20
2019-05-07T07:01:46.890Z,10.20
2019-05-07T07:04:22.563Z,10.20
2019-05-07T07:07:26.320Z,10.30
2019-05-07T07:10:12.082Z,10.40
2019-05-07T07:12:42.713Z,10.50
2019-05-07T07:15:14.590Z,10.50
2019-05-07T07:17:45.035Z,10.50
2019-05-07T07:20:16.166Z,10.60
2019-05-07T07:22:46.753Z,10.60
2019-05-07T07:25:17.262Z,10.60
2019-05-07T07:27:47.760Z,10.80
2019-05-07T07:30:34.741Z,10.80
2019-05-07T07:33:06.842Z,11.00
2019-05-07T07:35:56.391Z,11.00
2019-05-07T07:38:33.196Z,11.00
2019-05-07T07:41:10.088Z,11.00
2019-05-07T07:43:42.013Z,11.00
2019-05-07T07:46:13.976Z,11.10
2019-05-07T07:48:44.942Z,11.10
2019-05-07T07:51:15.575Z,11.20
2019-05-07T07:53:46.086Z,11.40
2019-05-07T07:56:50.108Z,11.50
2019-05-07T07:59:25.438Z,11.50
2019-05-07T08:02:01.796Z,11.40
2019-05-07T08:04:32.382Z,11.50
2019-05-07T08:07:06.173Z,11.60
2019-05-07T08:09:36.902Z,11.80
2019-05-07T08:12:08.968Z,11.90
2019-05-07T08:14:39.390Z,11.90
2019-05-07T08:17:09.904Z,12.00
2019-05-07T08:19:40.279Z,12.00
2019-05-07T08:22:12.057Z,11.90
2019-05-07T08:24:43.771Z,12.00
2019-05-07T08:27:15.320Z,12.20
2019-05-07T08:29:46.033Z,12.30
2019-05-07T08:32:38.303Z,12.50
2019-05-07T08:35:32.572Z,12.40
2019-05-07T08:38:02.838Z,12.20
2019-05-07T08:40:33.267Z,12.10
2019-05-07T08:43:03.688Z,12.20
2019-05-07T08:45:58.133Z,12.30
2019-05-07T08:48:36.442Z,12.30
2019-05-07T08:51:07.152Z,12.10
2019-05-07T08:53:37.715Z,12.00
2019-05-07T08:56:08.589Z,12.10
2019-05-07T08:58:39.095Z,12.10
2019-05-07T09:01:11.724Z,12.20
2019-05-07T09:03:45.062Z,12.20
2019-05-07T09:06:17.578Z,12.20
2019-05-07T09:08:48.308Z,12.30
2019-05-07T09:11:18.821Z,12.40
2019-05-07T09:13:49.216Z,12.40
2019-05-07T09:16:19.756Z,12.60
2019-05-07T09:18:50.198Z,12.80
2019-05-07T09:21:22.684Z,12.80
2019-05-07T09:23:52.826Z,12.70
2019-05-07T09:26:29.219Z,12.70
2019-05-07T09:29:18.563Z,12.80
2019-05-07T09:32:06.754Z,12.90
2019-05-07T09:34:41.753Z,13.10
2019-05-07T09:37:14.130Z,13.40
2019-05-07T09:39:44.541Z,13.60
2019-05-07T09:42:14.944Z,13.60
2019-05-07T09:44:45.397Z,13.70
2019-05-07T09:47:15.851Z,13.70
2019-05-07T09:49:46.339Z,13.50
2019-05-07T09:52:16.807Z,13.40
2019-05-07T09:54:47.327Z,13.40
2019-05-07T09:57:30.088Z,13.00
2019-05-07T09:59:49.797Z,13.10
2019-05-07T10:02:22.512Z,13.40
2019-05-07T10:04:52.850Z,13.70
2019-05-07T10:07:24.859Z,13.70
2019-05-07T10:09:55.395Z,13.50
2019-05-07T10:12:33.953Z,13.30
2019-05-07T10:15:04.817Z,13.40
2019-05-07T10:17:43.923Z,13.50
2019-05-07T10:20:21.528Z,13.50
2019-05-07T10:22:47.798Z,13.30
2019-05-07T10:25:18.420Z,13.40
2019-05-07T10:27:49.202Z,13.40
2019-05-07T10:30:21.721Z,13.60
2019-05-07T10:32:52.734Z,14.00
2019-05-07T10:35:23.773Z,14.30
2019-05-07T10:37:54.306Z,14.20
2019-05-07T10:40:25.214Z,14.20
2019-05-07T10:42:56.032Z,14.10
2019-05-07T10:46:02.382Z,13.90
2019-05-07T10:48:39.182Z,13.80
2019-05-07T10:51:09.812Z,13.90
2019-05-07T10:53:42.336Z,14.10
2019-05-07T10:56:12.624Z,13.90
2019-05-07T10:58:43.073Z,13.70
2019-05-07T11:01:16.606Z,13.70
2019-05-07T11:03:47.161Z,13.70
2019-05-07T11:06:17.900Z,13.70
2019-05-07T11:08:48.592Z,13.90
2019-05-07T11:11:19.108Z,13.90
2019-05-07T11:13:49.632Z,13.80
2019-05-07T11:16:22.156Z,14.10
2019-05-07T11:18:52.873Z,14.10
2019-05-07T11:21:33.330Z,14.20
2019-05-07T11:24:04.515Z,14.00
2019-05-07T11:26:36.127Z,13.90
2019-05-07T11:29:06.681Z,13.60
2019-05-07T11:31:37.237Z,13.30
2019-05-07T11:34:07.773Z,13.20
2019-05-07T11:36:38.761Z,13.40
2019-05-07T11:39:09.456Z,13.70
2019-05-07T11:42:05.355Z,13.70
2019-05-07T11:44:35.999Z,13.90
2019-05-07T11:47:25.071Z,14.00
2019-05-07T11:50:29.919Z,14.20
2019-05-07T11:53:03.421Z,14.60
2019-05-07T11:55:33.896Z,14.80
2019-05-07T11:58:04.411Z,14.70
2019-05-07T12:00:58.489Z,14.90
2019-05-07T12:03:28.897Z,15.10
2019-05-07T12:05:59.437Z,15.40
2019-05-07T12:08:52.010Z,15.50
2019-05-07T12:11:21.834Z,15.00
2019-05-07T12:13:52.679Z,14.60
2019-05-07T12:16:23.179Z,14.30
2019-05-07T12:18:55.457Z,14.30
2019-05-07T12:21:26.179Z,15.00
2019-05-07T12:23:56.781Z,16.10
2019-05-07T12:26:27.216Z,18.30
2019-05-07T12:28:57.701Z,20.40
2019-05-07T12:31:59.541Z,22.10
2019-05-07T12:34:38.859Z,22.40
2019-05-07T12:37:09.683Z,20.40
2019-05-07T12:39:42.189Z,18.60
2019-05-07T12:42:12.374Z,17.80
2019-05-07T12:44:44.226Z,18.70
2019-05-07T12:47:14.799Z,19.40
2019-05-07T12:49:45.370Z,20.40
2019-05-07T12:52:23.823Z,22.40
2019-05-07T12:55:12.042Z,23.90
2019-05-07T12:57:42.538Z,24.30
2019-05-07T13:00:32.324Z,22.50
2019-05-07T13:03:23.046Z,20.90
2019-05-07T13:05:53.608Z,19.30
2019-05-07T13:08:24.251Z,18.20
2019-05-07T13:10:54.757Z,18.40
2019-05-07T13:13:25.300Z,19.70
2019-05-07T13:15:55.737Z,21.50
2019-05-07T13:18:26.144Z,21.60
2019-05-07T13:20:56.584Z,20.50
2019-05-07T13:23:27.368Z,20.80
2019-05-07T13:25:57.804Z,22.10
2019-05-07T13:28:28.291Z,22.80
2019-05-07T13:30:58.713Z,21.80
2019-05-07T13:33:31.649Z,21.60
2019-05-07T13:36:02.725Z,21.10
2019-05-07T13:39:04.531Z,20.50
2019-05-07T13:41:58.613Z,18.80
2019-05-07T13:44:48.441Z,17.90
2019-05-07T13:47:31.534Z,17.90
2019-05-07T13:50:02.722Z,17.70
2019-05-07T13:52:34.735Z,17.50
2019-05-07T13:55:06.155Z,17.30
2019-05-07T13:57:36.742Z,17.00
2019-05-07T14:00:12.895Z,16.90
2019-05-07T14:02:43.302Z,18.10
2019-05-07T14:05:14.433Z,18.30
2019-05-07T14:07:46.162Z,17.80
2019-05-07T14:10:16.849Z,17.70
2019-05-07T14:12:47.681Z,18.10
2019-05-07T14:15:19.271Z,18.40
2019-05-07T14:17:50.176Z,18.70
2019-05-07T14:20:22.208Z,19.70
2019-05-07T14:22:53.122Z,20.10
2019-05-07T14:25:24.133Z,19.30
2019-05-07T14:27:55.134Z,20.40
2019-05-07T14:30:25.698Z,20.90
2019-05-07T14:33:06.050Z,21.40
2019-05-07T14:36:02.565Z,21.70
2019-05-07T14:38:38.050Z,22.00
2019-05-07T14:41:08.476Z,22.60
2019-05-07T14:43:44.576Z,22.60
2019-05-07T14:46:15.500Z,20.90
2019-05-07T14:48:46.646Z,20.50
2019-05-07T14:51:17.142Z,21.00
2019-05-07T14:53:47.746Z,22.40
2019-05-07T14:56:18.247Z,23.40
2019-05-07T14:58:48.832Z,22.90
2019-05-07T15:01:19.392Z,22.50
2019-05-07T15:03:51.642Z,21.70
2019-05-07T15:06:22.018Z,21.60
2019-05-07T15:08:52.979Z,22.10
2019-05-07T15:11:23.414Z,22.70
2019-05-07T15:13:54.044Z,22.30
2019-05-07T15:16:25.703Z,21.80
2019-05-07T15:18:57.744Z,21.60
2019-05-07T15:21:28.286Z,21.90
2019-05-07T15:23:58.799Z,21.30
2019-05-07T15:26:29.921Z,21.10
2019-05-07T15:29:12.561Z,21.70
2019-05-07T15:32:05.149Z,21.40
2019-05-07T15:34:36.039Z,21.40
2019-05-07T15:37:06.503Z,20.80
2019-05-07T15:39:37.094Z,20.50
2019-05-07T15:42:07.681Z,20.90
2019-05-07T15:44:38.197Z,21.00
2019-05-07T15:47:13.607Z,19.80
2019-05-07T15:49:44.008Z,18.70
2019-05-07T15:52:22.033Z,18.40
2019-05-07T15:54:52.451Z,17.90
2019-05-07T15:57:26.763Z,17.20
2019-05-07T16:00:06.055Z,16.80
2019-05-07T16:02:40.030Z,16.30
2019-05-07T16:05:12.253Z,16.00
2019-05-07T16:07:45.405Z,15.90
2019-05-07T16:10:16.043Z,16.40
2019-05-07T16:12:46.745Z,17.60
2019-05-07T16:15:17.277Z,18.10
2019-05-07T16:17:53.775Z,18.40
2019-05-07T16:20:24.257Z,19.30
2019-05-07T16:23:10.877Z,19.00
2019-05-07T16:25:32.684Z,18.50
2019-05-07T16:28:04.825Z,17.60
2019-05-07T16:30:35.020Z,16.90
2019-05-07T16:33:05.774Z,16.60
2019-05-07T16:35:36.257Z,16.10
2019-05-07T16:38:06.795Z,15.90
2019-05-07T16:40:37.260Z,15.40
2019-05-07T16:43:07.784Z,15.40
2019-05-07T16:45:38.362Z,15.40
2019-05-07T16:48:08.972Z,15.40
2019-05-07T16:50:39.412Z,15.20
2019-05-07T16:53:12.074Z,15.00
2019-05-07T16:55:43.040Z,14.80
2019-05-07T16:58:38.851Z,14.70
2019-05-07T17:01:10.440Z,14.60
2019-05-07T17:03:47.815Z,14.40
2019-05-07T17:06:19.142Z,14.40
2019-05-07T17:08:59.478Z,14.10
2019-05-07T17:11:31.874Z,14.00
2019-05-07T17:14:02.427Z,13.90
2019-05-07T17:16:34.037Z,13.90
2019-05-07T17:19:04.991Z,13.90
2019-05-07T17:21:35.468Z,13.90
2019-05-07T17:24:06.098Z,13.80
2019-05-07T17:26:36.702Z,13.70
2019-05-07T17:29:07.210Z,13.70
2019-05-07T17:31:37.798Z,13.60
2019-05-07T17:34:11.640Z,13.60
2019-05-07T17:36:42.113Z,13.60
2019-05-07T17:39:13.981Z,13.70
2019-05-07T17:41:44.798Z,13.70
2019-05-07T17:44:15.401Z,13.60
2019-05-07T17:46:46.308Z,13.60
2019-05-07T17:49:16.851Z,13.60
2019-05-07T17:51:47.391Z,13.60
2019-05-07T17:54:18.111Z,13.50
2019-05-07T17:56:48.873Z,13.40
2019-05-07T17:59:19.319Z,13.40
2019-05-07T18:02:10.025Z,13.30
2019-05-07T18:04:50.923Z,13.30
2019-05-07T18:07:15.387Z,13.30
2019-05-07T18:09:46.045Z,13.20
2019-05-07T18:12:16.544Z,13.10
2019-05-07T18:14:47.345Z,13.00
2019-05-07T18:17:29.109Z,13.00
2019-05-07T18:19:59.548Z,12.80
2019-05-07T18:22:29.994Z,12.70
2019-05-07T18:25:01.779Z,12.60
2019-05-07T18:27:32.966Z,12.50
2019-05-07T18:30:04.119Z,12.40
2019-05-07T18:32:39.229Z,12.40
2019-05-07T18:35:09.866Z,12.30
2019-05-07T18:37:52.453Z,12.30
2019-05-07T18:40:23.501Z,12.30
2019-05-07T18:42:53.946Z,12.30
2019-05-07T18:45:24.375Z,12.20
2019-05-07T18:47:55.026Z,12.10
2019-05-07T18:50:25.494Z,12.10
2019-05-07T18:52:55.944Z,11.80
2019-05-07T18:55:26.408Z,11.80
2019-05-07T18:57:56.977Z,11.80
2019-05-07T19:00:34.141Z,11.70
2019-05-07T19:03:05.977Z,11.60
2019-05-07T19:05:36.477Z,11.50
2019-05-07T19:08:08.584Z,11.50
2019-05-07T19:11:05.654Z,11.50
2019-05-07T19:13:35.187Z,11.40
2019-05-07T19:16:05.712Z,11.30
2019-05-07T19:18:36.410Z,11.30
2019-05-07T19:21:06.995Z,11.20
2019-05-07T19:23:37.703Z,11.10
2019-05-07T19:26:08.132Z,11.10
2019-05-07T19:28:38.634Z,11.00
2019-05-07T19:31:09.371Z,10.90
2019-05-07T19:33:41.780Z,10.90
2019-05-07T19:36:11.995Z,10.80
2019-05-07T19:38:42.533Z,10.80
2019-05-07T19:41:13.108Z,10.70
2019-05-07T19:43:43.565Z,10.80
2019-05-07T19:46:14.111Z,10.70
2019-05-07T19:48:44.696Z,10.50
2019-05-07T19:51:15.274Z,10.30
2019-05-07T19:53:46.099Z,10.20
2019-05-07T19:56:21.709Z,10.10
2019-05-07T19:58:52.717Z,10.10
2019-05-07T20:01:28.169Z,10.10
2019-05-07T20:03:58.778Z,10.00
2019-05-07T20:06:29.234Z,9.90
2019-05-07T20:09:09.838Z,9.90
2019-05-07T20:11:39.395Z,9.80
2019-05-07T20:14:36.486Z,9.70
2019-05-07T20:17:07.132Z,9.50
2019-05-07T20:19:37.746Z,9.40
2019-05-07T20:22:08.362Z,9.40
2019-05-07T20:24:39.040Z,9.40
2019-05-07T20:27:12.498Z,9.20
2019-05-07T20:29:42.878Z,9.20
2019-05-07T20:32:13.539Z,9.20
2019-05-07T20:34:44.060Z,9.10
2019-05-07T20:37:14.952Z,9.10
2019-05-07T20:39:45.496Z,9.00
2019-05-07T20:42:16.093Z,9.00
2019-05-07T20:44:46.710Z,8.90
2019-05-07T20:47:17.184Z,8.80
2019-05-07T20:49:48.945Z,8.80
2019-05-07T20:52:19.918Z,8.70
2019-05-07T20:55:00.914Z,8.70
2019-05-07T20:57:40.156Z,8.70
2019-05-07T21:00:18.925Z,8.80
2019-05-07T21:02:52.487Z,8.70
2019-05-07T21:05:24.092Z,8.60
2019-05-07T21:07:54.730Z,8.40
2019-05-07T21:10:25.588Z,8.30
2019-05-07T21:12:56.124Z,8.30
2019-05-07T21:15:26.588Z,8.20
2019-05-07T21:17:57.226Z,8.20
2019-05-07T21:20:27.731Z,8.30
2019-05-07T21:22:58.435Z,8.30
2019-05-07T21:25:42.283Z,8.30
2019-05-07T21:28:02.099Z,8.30
2019-05-07T21:30:32.947Z,8.20
2019-05-07T21:33:03.545Z,8.10
2019-05-07T21:35:34.254Z,8.20
2019-05-07T21:38:04.753Z,8.20
2019-05-07T21:40:36.531Z,8.20
2019-05-07T21:43:07.129Z,8.10
2019-05-07T21:45:37.641Z,8.10
2019-05-07T21:48:08.315Z,8.00
2019-05-07T21:50:38.873Z,8.00
2019-05-07T21:53:16.389Z,7.90
2019-05-07T21:56:05.293Z,7.80
2019-05-07T21:58:56.171Z,7.80
2019-05-07T22:01:46.697Z,7.80
2019-05-07T22:04:17.193Z,7.70
2019-05-07T22:06:47.837Z,7.70
2019-05-07T22:09:18.831Z,7.70
2019-05-07T22:11:49.382Z,7.60
2019-05-07T22:14:22.001Z,7.60
2019-05-07T22:16:54.294Z,7.50
2019-05-07T22:19:24.097Z,7.60
2019-05-07T22:21:54.695Z,7.70
2019-05-07T22:24:25.262Z,7.70
2019-05-07T22:26:55.866Z,7.60
2019-05-07T22:29:26.402Z,7.50
2019-05-07T22:32:18.573Z,7.40
2019-05-07T22:34:56.860Z,7.40
2019-05-07T22:37:28.979Z,7.40
2019-05-07T22:40:04.247Z,7.40
2019-05-07T22:42:36.410Z,7.40
2019-05-07T22:45:07.501Z,7.30
2019-05-07T22:47:38.160Z,7.30
2019-05-07T22:50:08.774Z,7.20
2019-05-07T22:52:39.426Z,7.20
2019-05-07T22:55:13.985Z,7.20
2019-05-07T22:58:01.400Z,7.10
2019-05-07T23:00:43.875Z,7.10
2019-05-07T23:03:14.470Z,7.10
2019-05-07T23:05:45.143Z,7.00
2019-05-07T23:08:15.627Z,7.00
2019-05-07T23:10:46.394Z,6.90
2019-05-07T23:13:16.855Z,6.80
2019-05-07T23:16:04.938Z,6.80
2019-05-07T23:18:35.532Z,6.80
2019-05-07T23:21:06.001Z,6.80
2019-05-07T23:23:36.538Z,6.80
2019-05-07T23:26:07.249Z,6.80
2019-05-07T23:28:37.790Z,6.70
2019-05-07T23:31:08.433Z,6.70
2019-05-07T23:33:38.895Z,6.70
2019-05-07T23:36:15.217Z,6.70
2019-05-07T23:38:45.845Z,6.60
2019-05-07T23:41:32.995Z,6.60
2019-05-07T23:44:16.946Z,6.60
2019-05-07T23:46:47.418Z,6.40
2019-05-07T23:49:18.037Z,6.30
2019-05-07T23:51:48.533Z,6.30
2019-05-07T23:54:19.642Z,6.20
2019-05-07T23:57:05.011Z,6.20
2019-05-07T23:59:23.747Z,6.20
